createdAt,value
2022-09-20T00:00:53.876Z,996.58
2022-09-20T00:01:53.798Z,996.62
2022-09-20T00:02:53.797Z,996.52
2022-09-20T00:03:53.774Z,996.57
2022-09-20T00:04:53.808Z,996.66
2022-09-20T00:05:53.769Z,996.57
2022-09-20T00:06:53.762Z,996.65
2022-09-20T00:07:53.746Z,996.60
2022-09-20T00:08:53.769Z,996.62
2022-09-20T00:09:53.753Z,996.65
2022-09-20T00:10:53.736Z,996.61
2022-09-20T00:11:53.728Z,996.61
2022-09-20T00:12:53.717Z,996.61
2022-09-20T00:13:53.831Z,996.58
2022-09-20T00:14:53.717Z,996.59
2022-09-20T00:15:53.694Z,996.53
2022-09-20T00:16:53.808Z,996.61
2022-09-20T00:17:53.673Z,996.57
2022-09-20T00:18:54.682Z,996.51
2022-09-20T00:19:53.660Z,996.59
2022-09-20T00:20:53.655Z,996.55
2022-09-20T00:21:53.679Z,996.58
2022-09-20T00:22:53.638Z,996.58
2022-09-20T00:23:53.729Z,996.62
2022-09-20T00:24:53.635Z,996.57
2022-09-20T00:25:53.635Z,996.57
2022-09-20T00:26:53.637Z,996.59
2022-09-20T00:27:53.619Z,996.58
2022-09-20T00:28:53.724Z,996.58
2022-09-20T00:29:53.604Z,996.66
2022-09-20T00:30:53.608Z,996.64
2022-09-20T00:31:53.646Z,996.63
2022-09-20T00:32:53.596Z,996.72
2022-09-20T00:33:53.583Z,996.62
2022-09-20T00:34:53.571Z,996.67
2022-09-20T00:35:53.562Z,996.73
2022-09-20T00:36:53.559Z,996.73
2022-09-20T00:37:53.573Z,996.67
2022-09-20T00:38:53.543Z,996.73
2022-09-20T00:39:53.546Z,996.69
2022-09-20T00:40:53.534Z,996.64
2022-09-20T00:41:53.524Z,996.63
2022-09-20T00:42:53.531Z,996.60
2022-09-20T00:43:53.518Z,996.61
2022-09-20T00:44:53.502Z,996.58
2022-09-20T00:45:53.527Z,996.69
2022-09-20T00:46:53.495Z,996.61
2022-09-20T00:47:53.479Z,996.60
2022-09-20T00:48:53.495Z,996.67
2022-09-20T00:49:53.482Z,996.59
2022-09-20T00:50:53.470Z,996.62
2022-09-20T00:51:53.459Z,996.57
2022-09-20T00:52:53.459Z,996.59
2022-09-20T00:53:53.466Z,996.60
2022-09-20T00:54:53.443Z,996.56
2022-09-20T00:55:53.443Z,996.57
2022-09-20T00:56:53.430Z,996.65
2022-09-20T00:57:53.428Z,996.59
2022-09-20T00:58:53.418Z,996.64
2022-09-20T00:59:53.427Z,996.64
2022-09-20T01:00:53.424Z,996.67
2022-09-20T01:01:53.426Z,996.64
2022-09-20T01:02:53.394Z,996.64
2022-09-20T01:03:53.383Z,996.67
2022-09-20T01:04:53.379Z,996.65
2022-09-20T01:05:53.375Z,996.65
2022-09-20T01:06:53.379Z,996.64
2022-09-20T01:07:53.359Z,996.67
2022-09-20T01:08:53.356Z,996.60
2022-09-20T01:09:53.342Z,996.62
2022-09-20T01:10:53.850Z,996.69
2022-09-20T01:11:53.342Z,996.66
2022-09-20T01:12:53.338Z,996.67
2022-09-20T01:13:53.322Z,996.62
2022-09-20T01:14:53.306Z,996.63
2022-09-20T01:15:53.309Z,996.65
2022-09-20T01:16:53.371Z,996.68
2022-09-20T01:17:53.310Z,996.64
2022-09-20T01:18:53.282Z,996.62
2022-09-20T01:19:54.286Z,996.63
2022-09-20T01:20:53.279Z,996.60
2022-09-20T01:21:53.274Z,996.60
2022-09-20T01:22:53.262Z,996.55
2022-09-20T01:23:53.271Z,996.59
2022-09-20T01:24:53.248Z,996.54
2022-09-20T01:25:53.234Z,996.57
2022-09-20T01:26:53.237Z,996.59
2022-09-20T01:27:53.249Z,996.56
2022-09-20T01:28:53.279Z,996.54
2022-09-20T01:29:53.210Z,996.58
2022-09-20T01:30:53.208Z,996.59
2022-09-20T01:31:53.263Z,996.58
2022-09-20T01:32:53.207Z,996.57
2022-09-20T01:33:53.182Z,996.63
2022-09-20T01:34:53.183Z,996.65
2022-09-20T01:35:53.170Z,996.59
2022-09-20T01:36:53.174Z,996.61
2022-09-20T01:37:53.158Z,996.67
2022-09-20T01:38:53.166Z,996.65
2022-09-20T01:39:53.144Z,996.61
2022-09-20T01:40:53.146Z,996.60
2022-09-20T01:41:53.170Z,996.64
2022-09-20T01:42:53.124Z,996.64
2022-09-20T01:43:53.217Z,996.68
2022-09-20T01:44:53.112Z,996.69
2022-09-20T01:45:53.173Z,996.71
2022-09-20T01:46:53.096Z,996.67
2022-09-20T01:47:53.090Z,996.69
2022-09-20T01:48:53.082Z,996.69
2022-09-20T01:49:53.068Z,996.66
2022-09-20T01:50:53.074Z,996.67
2022-09-20T01:51:53.054Z,996.65
2022-09-20T01:52:53.057Z,996.67
2022-09-20T01:53:53.046Z,996.73
2022-09-20T01:54:53.046Z,996.68
2022-09-20T01:55:53.050Z,996.71
2022-09-20T01:56:53.035Z,996.68
2022-09-20T01:57:53.030Z,996.72
2022-09-20T01:59:07.235Z,996.73
2022-09-20T01:59:55.006Z,996.76
2022-09-20T02:00:53.066Z,996.71
2022-09-20T02:01:53.090Z,996.74
2022-09-20T02:02:53.005Z,996.78
2022-09-20T02:03:52.978Z,996.76
2022-09-20T02:04:52.974Z,996.73
2022-09-20T02:05:52.966Z,996.74
2022-09-20T02:06:52.974Z,996.72
2022-09-20T02:07:52.963Z,996.85
2022-09-20T02:08:53.060Z,996.83
2022-09-20T02:09:52.946Z,996.75
2022-09-20T02:10:52.936Z,996.83
2022-09-20T02:11:52.946Z,996.78
2022-09-20T02:12:52.924Z,996.81
2022-09-20T02:13:52.910Z,996.85
2022-09-20T02:14:52.925Z,996.80
2022-09-20T02:15:52.902Z,996.79
2022-09-20T02:16:52.981Z,996.85
2022-09-20T02:17:53.894Z,996.78
2022-09-20T02:18:52.886Z,996.80
2022-09-20T02:19:52.877Z,996.82
2022-09-20T02:20:52.866Z,996.80
2022-09-20T02:21:52.862Z,996.82
2022-09-20T02:22:52.889Z,996.80
2022-09-20T02:23:52.895Z,996.81
2022-09-20T02:24:52.845Z,996.81
2022-09-20T02:25:52.842Z,996.82
2022-09-20T02:26:52.830Z,996.82
2022-09-20T02:27:52.834Z,996.88
2022-09-20T02:28:52.821Z,996.87
2022-09-20T02:29:52.815Z,996.88
2022-09-20T02:30:52.810Z,996.80
2022-09-20T02:31:52.854Z,996.78
2022-09-20T02:32:52.807Z,996.83
2022-09-20T02:33:52.789Z,996.79
2022-09-20T02:34:52.786Z,996.82
2022-09-20T02:35:52.776Z,996.86
2022-09-20T02:36:52.766Z,996.86
2022-09-20T02:37:52.773Z,996.86
2022-09-20T02:38:52.808Z,996.89
2022-09-20T02:39:52.752Z,996.84
2022-09-20T02:40:52.750Z,996.89
2022-09-20T02:41:52.741Z,996.84
2022-09-20T02:42:52.762Z,996.87
2022-09-20T02:43:52.717Z,996.85
2022-09-20T02:44:52.722Z,996.86
2022-09-20T02:45:52.814Z,996.90
2022-09-20T02:46:52.697Z,996.91
2022-09-20T02:47:52.701Z,996.91
2022-09-20T02:48:52.710Z,996.90
2022-09-20T02:49:52.678Z,996.93
2022-09-20T02:50:52.673Z,996.90
2022-09-20T02:51:52.669Z,996.83
2022-09-20T02:52:52.658Z,996.89
2022-09-20T02:53:52.745Z,996.80
2022-09-20T02:54:52.658Z,996.90
2022-09-20T02:55:52.645Z,996.90
2022-09-20T02:56:52.633Z,996.86
2022-09-20T02:57:52.634Z,996.90
2022-09-20T02:58:52.632Z,996.90
2022-09-20T02:59:52.618Z,996.88
2022-09-20T03:00:52.649Z,996.87
2022-09-20T03:01:52.634Z,996.88
2022-09-20T03:02:52.589Z,996.93
2022-09-20T03:03:52.593Z,996.87
2022-09-20T03:04:52.597Z,996.91
2022-09-20T03:05:52.638Z,996.90
2022-09-20T03:06:52.573Z,996.94
2022-09-20T03:07:52.565Z,996.99
2022-09-20T03:08:52.598Z,996.95
2022-09-20T03:09:52.549Z,996.88
2022-09-20T03:10:52.562Z,996.92
2022-09-20T03:11:52.537Z,996.92
2022-09-20T03:12:52.525Z,996.97
2022-09-20T03:13:52.525Z,996.92
2022-09-20T03:14:52.521Z,996.94
2022-09-20T03:15:52.510Z,996.95
2022-09-20T03:16:52.785Z,996.94
2022-09-20T03:17:52.493Z,996.91
2022-09-20T03:18:52.485Z,996.94
2022-09-20T03:19:52.484Z,996.90
2022-09-20T03:20:52.486Z,996.95
2022-09-20T03:21:52.481Z,996.92
2022-09-20T03:22:52.477Z,996.96
2022-09-20T03:23:52.490Z,996.93
2022-09-20T03:24:52.456Z,996.93
2022-09-20T03:25:52.445Z,996.91
2022-09-20T03:26:52.445Z,996.87
2022-09-20T03:27:52.441Z,996.95
2022-09-20T03:28:52.437Z,996.96
2022-09-20T03:29:52.414Z,996.99
2022-09-20T03:30:52.403Z,997.02
2022-09-20T03:31:52.487Z,996.95
2022-09-20T03:32:52.397Z,996.91
2022-09-20T03:33:52.413Z,996.94
2022-09-20T03:34:52.389Z,996.98
2022-09-20T03:35:52.382Z,996.98
2022-09-20T03:36:52.377Z,996.99
2022-09-20T03:37:52.369Z,996.97
2022-09-20T03:38:52.463Z,997.00
2022-09-20T03:39:52.353Z,996.99
2022-09-20T03:40:53.323Z,996.95
2022-09-20T03:41:52.346Z,996.94
2022-09-20T03:42:52.325Z,996.97
2022-09-20T03:43:52.335Z,997.02
2022-09-20T03:44:52.342Z,997.02
2022-09-20T03:45:52.369Z,997.02
2022-09-20T03:46:52.299Z,997.00
2022-09-20T03:47:52.305Z,996.94
2022-09-20T03:48:52.284Z,996.98
2022-09-20T03:49:53.294Z,996.99
2022-09-20T03:50:52.282Z,996.98
2022-09-20T03:51:52.282Z,996.96
2022-09-20T03:52:52.273Z,996.97
2022-09-20T03:53:52.262Z,996.98
2022-09-20T03:54:52.258Z,996.96
2022-09-20T03:55:52.270Z,996.95
2022-09-20T03:56:52.239Z,996.96
2022-09-20T03:57:52.233Z,996.97
2022-09-20T03:58:52.233Z,996.95
2022-09-20T03:59:52.229Z,996.95
2022-09-20T04:00:52.281Z,996.99
2022-09-20T04:01:52.268Z,996.97
2022-09-20T04:02:52.205Z,996.99
2022-09-20T04:03:52.273Z,996.94
2022-09-20T04:04:52.193Z,997.01
2022-09-20T04:05:52.191Z,997.01
2022-09-20T04:06:52.767Z,996.94
2022-09-20T04:07:52.173Z,996.97
2022-09-20T04:08:52.197Z,996.97
2022-09-20T04:09:52.163Z,996.96
2022-09-20T04:10:52.145Z,996.93
2022-09-20T04:11:52.154Z,996.96
2022-09-20T04:12:52.141Z,996.94
2022-09-20T04:13:52.129Z,996.91
2022-09-20T04:14:52.176Z,996.96
2022-09-20T04:15:52.116Z,996.91
2022-09-20T04:16:52.157Z,996.91
2022-09-20T04:17:52.115Z,996.90
2022-09-20T04:18:52.124Z,997.01
2022-09-20T04:19:52.089Z,996.98
2022-09-20T04:20:52.078Z,996.96
2022-09-20T04:21:52.073Z,996.92
2022-09-20T04:22:52.070Z,996.96
2022-09-20T04:23:52.074Z,997.01
2022-09-20T04:24:52.063Z,997.04
2022-09-20T04:25:52.054Z,997.02
2022-09-20T04:26:52.041Z,996.99
2022-09-20T04:27:52.035Z,996.99
2022-09-20T04:28:52.028Z,997.09
2022-09-20T04:29:52.031Z,997.09
2022-09-20T04:30:51.998Z,997.05
2022-09-20T04:31:54.057Z,996.98
2022-09-20T04:32:52.995Z,997.05
2022-09-20T04:33:51.986Z,997.06
2022-09-20T04:34:51.994Z,997.03
2022-09-20T04:35:51.976Z,997.10
2022-09-20T04:36:51.974Z,997.06
2022-09-20T04:37:51.960Z,997.09
2022-09-20T04:38:51.961Z,997.12
2022-09-20T04:39:51.967Z,997.08
2022-09-20T04:40:51.947Z,997.14
2022-09-20T04:41:51.939Z,997.11
2022-09-20T04:42:51.931Z,997.07
2022-09-20T04:43:51.926Z,997.10
2022-09-20T04:44:51.947Z,997.15
2022-09-20T04:45:51.956Z,997.15
2022-09-20T04:46:55.883Z,997.18
2022-09-20T04:47:52.895Z,997.15
2022-09-20T04:48:51.914Z,997.19
2022-09-20T04:49:51.903Z,997.16
2022-09-20T04:50:51.888Z,997.08
2022-09-20T04:51:51.867Z,997.10
2022-09-20T04:52:51.863Z,997.11
2022-09-20T04:53:51.856Z,997.05
2022-09-20T04:54:51.843Z,997.09
2022-09-20T04:55:51.855Z,997.11
2022-09-20T04:56:51.860Z,997.18
2022-09-20T04:57:51.819Z,997.08
2022-09-20T04:58:52.823Z,997.03
2022-09-20T04:59:51.822Z,997.10
2022-09-20T05:00:51.863Z,997.15
2022-09-20T05:01:51.839Z,997.09
2022-09-20T05:02:51.794Z,997.21
2022-09-20T05:03:51.785Z,997.19
2022-09-20T05:04:51.882Z,997.17
2022-09-20T05:05:51.818Z,997.17
2022-09-20T05:06:51.765Z,997.17
2022-09-20T05:07:51.750Z,997.21
2022-09-20T05:08:54.230Z,997.21
2022-09-20T05:09:52.748Z,997.28
2022-09-20T05:10:51.741Z,997.25
2022-09-20T05:11:51.738Z,997.29
2022-09-20T05:12:52.729Z,997.34
2022-09-20T05:13:51.727Z,997.31
2022-09-20T05:14:51.718Z,997.31
2022-09-20T05:15:51.708Z,997.26
2022-09-20T05:16:51.747Z,997.24
2022-09-20T05:17:51.704Z,997.31
2022-09-20T05:18:51.694Z,997.27
2022-09-20T05:19:51.683Z,997.29
2022-09-20T05:20:51.683Z,997.31
2022-09-20T05:21:51.687Z,997.33
2022-09-20T05:22:51.664Z,997.36
2022-09-20T05:23:51.658Z,997.32
2022-09-20T05:24:51.655Z,997.35
2022-09-20T05:25:51.642Z,997.36
2022-09-20T05:26:51.659Z,997.34
2022-09-20T05:27:51.634Z,997.41
2022-09-20T05:28:51.610Z,997.35
2022-09-20T05:29:51.623Z,997.34
2022-09-20T05:30:51.614Z,997.47
2022-09-20T05:31:51.704Z,997.39
2022-09-20T05:32:51.602Z,997.39
2022-09-20T05:33:51.590Z,997.40
2022-09-20T05:34:51.590Z,997.41
2022-09-20T05:35:51.591Z,997.42
2022-09-20T05:36:51.590Z,997.38
2022-09-20T05:37:51.570Z,997.43
2022-09-20T05:38:51.559Z,997.38
2022-09-20T05:39:51.554Z,997.40
2022-09-20T05:40:51.583Z,997.40
2022-09-20T05:41:51.547Z,997.42
2022-09-20T05:42:51.554Z,997.43
2022-09-20T05:43:51.530Z,997.45
2022-09-20T05:44:51.521Z,997.46
2022-09-20T05:45:51.538Z,997.49
2022-09-20T05:46:51.514Z,997.57
2022-09-20T05:47:51.513Z,997.50
2022-09-20T05:48:51.495Z,997.56
2022-09-20T05:49:51.482Z,997.49
2022-09-20T05:50:53.847Z,997.55
2022-09-20T05:51:51.478Z,997.62
2022-09-20T05:52:51.494Z,997.66
2022-09-20T05:53:51.462Z,997.63
2022-09-20T05:54:51.454Z,997.62
2022-09-20T05:55:51.454Z,997.64
2022-09-20T05:56:51.442Z,997.65
2022-09-20T05:57:51.450Z,997.57
2022-09-20T05:58:51.429Z,997.69
2022-09-20T05:59:51.427Z,997.72
2022-09-20T06:00:51.449Z,997.71
2022-09-20T06:01:51.406Z,997.72
2022-09-20T06:02:51.415Z,997.72
2022-09-20T06:03:51.390Z,997.70
2022-09-20T06:04:52.392Z,997.70
2022-09-20T06:05:51.383Z,997.73
2022-09-20T06:06:51.375Z,997.72
2022-09-20T06:07:51.393Z,997.71
2022-09-20T06:08:51.365Z,997.76
2022-09-20T06:09:51.360Z,997.70
2022-09-20T06:10:51.347Z,997.73
2022-09-20T06:11:51.347Z,997.78
2022-09-20T06:12:51.322Z,997.75
2022-09-20T06:13:51.353Z,997.77
2022-09-20T06:14:51.326Z,997.80
2022-09-20T06:15:51.313Z,997.77
2022-09-20T06:16:51.344Z,997.82
2022-09-20T06:17:51.346Z,997.83
2022-09-20T06:18:51.305Z,997.87
2022-09-20T06:19:51.290Z,997.84
2022-09-20T06:20:51.282Z,997.83
2022-09-20T06:21:51.266Z,997.80
2022-09-20T06:22:51.261Z,997.85
2022-09-20T06:23:51.266Z,997.79
2022-09-20T06:24:51.270Z,997.87
2022-09-20T06:25:51.252Z,997.86
2022-09-20T06:26:51.243Z,997.84
2022-09-20T06:27:51.230Z,997.90
2022-09-20T06:28:54.143Z,997.82
2022-09-20T06:29:52.238Z,997.86
2022-09-20T06:30:51.245Z,997.85
2022-09-20T06:31:51.218Z,997.87
2022-09-20T06:32:51.202Z,997.85
2022-09-20T06:33:51.186Z,997.87
2022-09-20T06:34:51.198Z,997.77
2022-09-20T06:35:52.386Z,997.81
2022-09-20T06:36:51.170Z,997.84
2022-09-20T06:37:51.850Z,997.84
2022-09-20T06:38:51.159Z,997.82
2022-09-20T06:39:51.150Z,997.88
2022-09-20T06:40:51.151Z,997.83
2022-09-20T06:41:51.139Z,997.80
2022-09-20T06:42:51.134Z,997.77
2022-09-20T06:43:51.122Z,997.83
2022-09-20T06:44:51.133Z,997.87
2022-09-20T06:45:51.178Z,997.89
2022-09-20T06:46:51.101Z,997.90
2022-09-20T06:47:51.095Z,997.89
2022-09-20T06:48:51.087Z,997.88
2022-09-20T06:49:51.150Z,997.94
2022-09-20T06:50:51.094Z,997.90
2022-09-20T06:51:51.076Z,997.88
2022-09-20T06:52:51.061Z,997.92
2022-09-20T06:53:51.053Z,997.95
2022-09-20T06:54:51.056Z,998.02
2022-09-20T06:55:51.068Z,998.01
2022-09-20T06:56:51.049Z,998.07
2022-09-20T06:57:51.031Z,998.00
2022-09-20T06:58:51.022Z,997.98
2022-09-20T06:59:51.017Z,998.06
2022-09-20T07:00:51.049Z,998.07
2022-09-20T07:01:51.078Z,998.07
2022-09-20T07:02:50.999Z,998.05
2022-09-20T07:03:50.993Z,998.03
2022-09-20T07:04:50.989Z,998.05
2022-09-20T07:05:50.977Z,998.08
2022-09-20T07:06:50.986Z,998.07
2022-09-20T07:07:50.962Z,998.06
2022-09-20T07:08:50.962Z,998.06
2022-09-20T07:09:50.957Z,998.06
2022-09-20T07:10:50.943Z,998.07
2022-09-20T07:11:50.946Z,998.09
2022-09-20T07:12:50.937Z,998.10
2022-09-20T07:13:50.921Z,998.06
2022-09-20T07:14:50.917Z,998.07
2022-09-20T07:15:50.919Z,998.04
2022-09-20T07:16:50.940Z,998.06
2022-09-20T07:17:50.902Z,998.08
2022-09-20T07:18:50.901Z,998.06
2022-09-20T07:19:51.885Z,998.08
2022-09-20T07:20:50.877Z,998.06
2022-09-20T07:21:50.885Z,998.08
2022-09-20T07:22:50.896Z,998.10
2022-09-20T07:23:50.862Z,998.12
2022-09-20T07:24:50.857Z,998.14
2022-09-20T07:25:50.849Z,998.19
2022-09-20T07:26:50.846Z,998.12
2022-09-20T07:27:50.862Z,998.16
2022-09-20T07:28:50.837Z,998.18
2022-09-20T07:29:50.837Z,998.24
2022-09-20T07:30:50.821Z,998.16
2022-09-20T07:31:50.905Z,998.16
2022-09-20T07:32:50.818Z,998.18
2022-09-20T07:33:50.818Z,998.22
2022-09-20T07:34:50.806Z,998.22
2022-09-20T07:35:50.785Z,998.25
2022-09-20T07:36:50.781Z,998.25
2022-09-20T07:37:50.789Z,998.20
2022-09-20T07:38:50.769Z,998.26
2022-09-20T07:39:50.777Z,998.22
2022-09-20T07:40:50.774Z,998.26
2022-09-20T07:41:50.768Z,998.30
2022-09-20T07:42:55.985Z,998.28
2022-09-20T07:43:51.737Z,998.29
2022-09-20T07:44:50.738Z,998.27
2022-09-20T07:45:50.754Z,998.35
2022-09-20T07:46:50.725Z,998.35
2022-09-20T07:47:50.740Z,998.37
2022-09-20T07:48:50.709Z,998.37
2022-09-20T07:49:50.705Z,998.39
2022-09-20T07:50:50.673Z,998.40
2022-09-20T07:51:50.696Z,998.39
2022-09-20T07:52:50.700Z,998.43
2022-09-20T07:53:50.673Z,998.38
2022-09-20T07:54:50.669Z,998.42
2022-09-20T07:55:50.665Z,998.40
2022-09-20T07:56:50.653Z,998.40
2022-09-20T07:57:50.654Z,998.46
2022-09-20T07:58:52.577Z,998.48
2022-09-20T07:59:50.647Z,998.49
2022-09-20T08:00:50.700Z,998.35
2022-09-20T08:01:50.664Z,998.43
2022-09-20T08:02:50.625Z,998.43
2022-09-20T08:03:50.643Z,998.44
2022-09-20T08:04:50.610Z,998.42
2022-09-20T08:05:50.609Z,998.44
2022-09-20T08:06:50.599Z,998.50
2022-09-20T08:07:50.589Z,998.48
2022-09-20T08:08:50.589Z,998.46
2022-09-20T08:09:50.566Z,998.48
2022-09-20T08:10:50.577Z,998.49
2022-09-20T08:11:50.565Z,998.51
2022-09-20T08:14:08.864Z,998.46
2022-09-20T08:14:52.557Z,998.60
2022-09-20T08:15:50.528Z,998.55
2022-09-20T08:16:50.621Z,998.58
2022-09-20T08:17:50.537Z,998.61
2022-09-20T08:18:50.532Z,998.56
2022-09-20T08:19:50.528Z,998.59
2022-09-20T08:20:50.504Z,998.59
2022-09-20T08:21:50.500Z,998.58
2022-09-20T08:23:12.734Z,998.57
2022-09-20T08:23:51.512Z,998.65
2022-09-20T08:24:50.477Z,998.60
2022-09-20T08:25:50.462Z,998.62
2022-09-20T08:26:50.472Z,998.58
2022-09-20T08:27:50.451Z,998.66
2022-09-20T08:28:50.453Z,998.66
2022-09-20T08:29:50.477Z,998.64
2022-09-20T08:30:50.433Z,998.66
2022-09-20T08:31:50.464Z,998.66
2022-09-20T08:32:50.433Z,998.64
2022-09-20T08:33:50.427Z,998.63
2022-09-20T08:34:50.536Z,998.68
2022-09-20T08:35:50.409Z,998.66
2022-09-20T08:36:50.404Z,998.67
2022-09-20T08:37:50.684Z,998.63
2022-09-20T08:39:59.697Z,998.57
2022-09-20T08:40:52.377Z,998.61
2022-09-20T08:41:50.373Z,998.59
2022-09-20T08:42:50.364Z,998.59
2022-09-20T08:43:50.362Z,998.62
2022-09-20T08:44:57.738Z,998.59
2022-09-20T08:45:52.418Z,998.60
2022-09-20T08:46:50.336Z,998.55
2022-09-20T08:47:50.329Z,998.60
2022-09-20T08:48:50.328Z,998.65
2022-09-20T08:49:56.395Z,998.62
2022-09-20T08:50:51.300Z,998.65
2022-09-20T08:51:50.302Z,998.51
2022-09-20T08:52:50.296Z,998.50
2022-09-20T08:53:50.284Z,998.76
2022-09-20T08:54:50.296Z,998.74
2022-09-20T08:55:50.265Z,998.72
2022-09-20T08:56:50.273Z,998.46
2022-09-20T08:57:50.264Z,998.45
2022-09-20T08:58:50.237Z,998.41
2022-09-20T08:59:50.244Z,998.47
2022-09-20T09:00:50.268Z,998.65
2022-09-20T09:01:50.228Z,998.73
2022-09-20T09:02:50.224Z,998.69
2022-09-20T09:03:50.221Z,998.61
2022-09-20T09:04:50.218Z,998.70
2022-09-20T09:05:50.214Z,998.58
2022-09-20T09:06:50.200Z,998.61
2022-09-20T09:07:50.216Z,998.64
2022-09-20T09:08:50.184Z,998.56
2022-09-20T09:09:50.180Z,998.54
2022-09-20T09:10:50.171Z,998.37
2022-09-20T09:11:50.156Z,998.30
2022-09-20T09:12:50.173Z,998.36
2022-09-20T09:13:50.149Z,998.34
2022-09-20T09:14:50.148Z,998.39
2022-09-20T09:15:50.191Z,998.39
2022-09-20T09:16:50.145Z,998.51
2022-09-20T09:17:50.128Z,998.40
2022-09-20T09:18:50.125Z,998.49
2022-09-20T09:19:50.112Z,998.50
2022-09-20T09:20:50.092Z,998.50
2022-09-20T09:21:50.097Z,998.55
2022-09-20T09:22:50.092Z,998.53
2022-09-20T09:23:50.084Z,998.58
2022-09-20T09:24:50.081Z,998.57
2022-09-20T09:25:50.072Z,998.37
2022-09-20T09:26:50.071Z,998.44
2022-09-20T09:27:50.052Z,998.37
2022-09-20T09:28:50.063Z,998.55
2022-09-20T09:29:50.044Z,998.51
2022-09-20T09:30:50.029Z,998.48
2022-09-20T09:31:50.155Z,998.08
2022-09-20T09:32:50.032Z,998.02
2022-09-20T09:33:50.032Z,998.01
2022-09-20T09:34:50.036Z,998.11
2022-09-20T09:35:50.011Z,998.14
2022-09-20T09:36:50.004Z,998.08
2022-09-20T09:37:49.995Z,998.16
2022-09-20T09:38:51.015Z,998.20
2022-09-20T09:39:49.994Z,998.18
2022-09-20T09:40:49.988Z,998.11
2022-09-20T09:41:49.982Z,998.17
2022-09-20T09:42:49.967Z,998.19
2022-09-20T09:43:49.961Z,998.24
2022-09-20T09:44:49.977Z,998.21
2022-09-20T09:45:50.043Z,998.29
2022-09-20T09:46:49.946Z,998.25
2022-09-20T09:47:49.944Z,998.33
2022-09-20T09:48:50.011Z,998.32
2022-09-20T09:49:49.943Z,998.33
2022-09-20T09:50:49.920Z,998.28
2022-09-20T09:51:49.921Z,998.34
2022-09-20T09:52:49.904Z,998.26
2022-09-20T09:53:49.898Z,998.37
2022-09-20T09:54:49.902Z,998.33
2022-09-20T09:55:49.882Z,998.38
2022-09-20T09:56:49.880Z,998.37
2022-09-20T09:57:49.876Z,998.50
2022-09-20T09:58:49.863Z,998.38
2022-09-20T09:59:49.854Z,998.37
2022-09-20T10:00:49.909Z,998.60
2022-09-20T10:01:49.958Z,998.58
2022-09-20T10:02:49.864Z,998.69
2022-09-20T10:03:49.827Z,998.52
2022-09-20T10:04:49.826Z,998.62
2022-09-20T10:05:49.827Z,998.67
2022-09-20T10:06:52.330Z,998.59
2022-09-20T10:07:50.800Z,998.70
2022-09-20T10:08:49.782Z,998.42
2022-09-20T10:09:49.790Z,998.44
2022-09-20T10:10:49.774Z,998.63
2022-09-20T10:11:49.794Z,998.64
2022-09-20T10:12:49.762Z,998.20
2022-09-20T10:13:49.758Z,998.13
2022-09-20T10:14:49.759Z,998.18
2022-09-20T10:15:49.766Z,998.19
2022-09-20T10:16:49.798Z,998.21
2022-09-20T10:17:49.732Z,998.13
2022-09-20T10:18:49.726Z,998.45
2022-09-20T10:19:49.707Z,998.34
2022-09-20T10:20:50.754Z,998.39
2022-09-20T10:21:49.703Z,998.10
2022-09-20T10:23:14.729Z,998.15
2022-09-20T10:24:03.146Z,998.13
2022-09-20T10:24:51.828Z,998.16
2022-09-20T10:25:50.783Z,998.08
2022-09-20T10:26:50.702Z,998.08
2022-09-20T10:27:49.702Z,998.14
2022-09-20T10:28:49.663Z,998.12
2022-09-20T10:29:49.658Z,998.11
2022-09-20T10:30:49.692Z,998.09
2022-09-20T10:31:49.642Z,998.09
2022-09-20T10:32:49.659Z,998.13
2022-09-20T10:33:49.626Z,998.09
2022-09-20T10:34:49.634Z,998.11
2022-09-20T10:35:49.610Z,998.15
2022-09-20T10:36:50.610Z,998.09
2022-09-20T10:37:49.697Z,998.04
2022-09-20T10:38:49.642Z,998.10
2022-09-20T10:39:49.599Z,998.12
2022-09-20T10:40:49.595Z,998.19
2022-09-20T10:41:49.578Z,998.13
2022-09-20T10:42:49.570Z,998.15
2022-09-20T10:43:49.591Z,998.32
2022-09-20T10:44:49.554Z,998.41
2022-09-20T10:46:27.915Z,998.18
2022-09-20T10:46:51.646Z,998.09
2022-09-20T10:47:49.547Z,998.24
2022-09-20T10:48:49.543Z,998.16
2022-09-20T10:49:50.872Z,998.11
2022-09-20T10:50:49.523Z,998.24
2022-09-20T10:51:49.511Z,998.14
2022-09-20T10:52:49.504Z,998.11
2022-09-20T10:53:49.518Z,998.15
2022-09-20T10:54:49.494Z,998.09
2022-09-20T10:55:49.488Z,998.17
2022-09-20T10:56:49.487Z,998.15
2022-09-20T10:57:49.474Z,998.13
2022-09-20T10:58:49.487Z,998.15
2022-09-20T10:59:49.467Z,998.26
2022-09-20T11:00:49.487Z,998.12
2022-09-20T11:01:49.518Z,998.15
2022-09-20T11:02:49.434Z,998.10
2022-09-20T11:03:49.438Z,998.09
2022-09-20T11:04:49.451Z,998.12
2022-09-20T11:05:49.426Z,998.12
2022-09-20T11:06:49.418Z,998.19
2022-09-20T11:07:49.487Z,998.15
2022-09-20T11:08:49.394Z,998.07
2022-09-20T11:09:49.410Z,998.17
2022-09-20T11:10:49.385Z,998.08
2022-09-20T11:11:49.382Z,998.19
2022-09-20T11:12:49.374Z,998.16
2022-09-20T11:13:49.375Z,998.15
2022-09-20T11:14:49.378Z,998.16
2022-09-20T11:15:49.370Z,998.17
2022-09-20T11:16:49.411Z,998.18
2022-09-20T11:17:49.350Z,998.26
2022-09-20T11:18:49.341Z,998.16
2022-09-20T11:19:49.341Z,998.14
2022-09-20T11:20:49.339Z,998.16
2022-09-20T11:21:49.321Z,998.14
2022-09-20T11:22:49.308Z,998.17
2022-09-20T11:23:49.301Z,998.17
2022-09-20T11:24:49.297Z,998.13
2022-09-20T11:25:49.302Z,998.25
2022-09-20T11:26:49.329Z,998.51
2022-09-20T11:27:49.281Z,998.24
2022-09-20T11:28:49.274Z,998.31
2022-09-20T11:29:49.271Z,998.56
2022-09-20T11:30:49.273Z,998.15
2022-09-20T11:31:49.287Z,998.53
2022-09-20T11:32:49.253Z,998.58
2022-09-20T11:33:49.242Z,998.56
2022-09-20T11:34:49.233Z,998.48
2022-09-20T11:35:49.237Z,998.49
2022-09-20T11:36:49.226Z,998.60
2022-09-20T11:37:49.221Z,998.38
2022-09-20T11:38:53.010Z,998.41
2022-09-20T11:39:50.202Z,998.50
2022-09-20T11:40:49.210Z,998.33
2022-09-20T11:41:49.218Z,998.15
2022-09-20T11:42:49.181Z,998.16
2022-09-20T11:43:49.177Z,998.17
2022-09-20T11:44:49.165Z,998.11
2022-09-20T11:45:49.297Z,998.26
2022-09-20T11:46:49.170Z,998.15
2022-09-20T11:47:56.225Z,998.22
2022-09-20T11:48:51.149Z,998.24
2022-09-20T11:49:49.135Z,998.26
2022-09-20T11:50:49.137Z,998.24
2022-09-20T11:51:49.129Z,998.19
2022-09-20T11:52:49.129Z,998.25
2022-09-20T11:53:49.118Z,998.19
2022-09-20T11:54:49.118Z,998.18
2022-09-20T11:55:49.105Z,998.19
2022-09-20T11:56:49.093Z,998.18
2022-09-20T11:57:49.081Z,998.15
2022-09-20T11:58:49.083Z,998.15
2022-09-20T11:59:49.094Z,998.23
2022-09-20T12:00:49.069Z,998.18
2022-09-20T12:01:49.101Z,998.22
2022-09-20T12:02:49.184Z,998.24
2022-09-20T12:03:49.049Z,998.35
2022-09-20T12:04:49.105Z,998.22
2022-09-20T12:05:49.053Z,998.29
2022-09-20T12:06:49.035Z,998.46
2022-09-20T12:07:49.029Z,998.48
2022-09-20T12:08:49.021Z,998.43
2022-09-20T12:09:49.018Z,998.31
2022-09-20T12:10:49.013Z,998.28
2022-09-20T12:11:49.002Z,998.31
2022-09-20T12:12:48.993Z,998.48
2022-09-20T12:13:49.032Z,998.43
2022-09-20T12:14:48.982Z,998.44
2022-09-20T12:15:48.990Z,998.42
2022-09-20T12:16:48.999Z,998.32
2022-09-20T12:17:48.953Z,998.35
2022-09-20T12:18:48.955Z,998.30
2022-09-20T12:19:48.941Z,998.48
2022-09-20T12:20:48.946Z,998.24
2022-09-20T12:21:49.534Z,998.28
2022-09-20T12:22:49.921Z,998.32
2022-09-20T12:23:48.937Z,998.26
2022-09-20T12:24:48.913Z,998.35
2022-09-20T12:25:48.918Z,998.30
2022-09-20T12:26:48.901Z,998.02
2022-09-20T12:27:49.857Z,998.04
2022-09-20T12:28:48.897Z,998.02
2022-09-20T12:29:48.885Z,997.99
2022-09-20T12:30:49.085Z,998.00